Latest Weather Observations for Jandakot

IDW60901

Issued at 12:31 pm WST Monday 3 August 2015 (issued every 10 minutes, with the page automatically refreshed every 10 minutes)

About weather observations | Map of Perth area stations | Latest observations for Perth area | Other Formats
Station Details ID: 009172 Name: JANDAKOT AERO Lat: -32.10 Lon: 115.88 Height: 30.0 m
Data from the previous 72 hours. | See also: Recent months at Jandakot
Date/Time
WST
Tmp

°C
App
Tmp
°C
Dew
Point
°C
Rel
Hum
%
Delta-T

°C
Wind Press
QNH
hPa
Press
MSL
hPa
Rain
since
9 am
mm
Dir
 
Spd
km/h
Gust
km/h
Spd
kts
Gust
kts
03/12:30pm 16.3 13.8 6.6 52 4.7 ESE 9 20 5 11 1033.9 1034.0 0.0
03/12:00pm 16.2 12.8 5.7 49 5.0 ENE 13 19 7 10 1034.6 1034.6 0.0
03/11:30am 16.0 12.9 5.7 50 5.0 E 11 17 6 9 1035.0 1035.0 0.0
03/11:00am 15.2 11.4 6.0 54 4.4 SE 15 20 8 11 1035.4 1035.4 0.0
03/10:30am 14.8 12.2 6.2 56 4.1 E 9 15 5 8 1035.7 1035.7 0.0
03/10:00am 13.8 11.3 6.4 61 3.5 E 9 15 5 8 1036.0 1036.0 0.0
03/09:30am 12.8 10.5 7.4 69 2.6 E 9 13 5 7 1036.0 1036.0 0.0
03/09:00am 11.4 8.2 7.0 74 2.1 ESE 13 17 7 9 1035.8 1035.8 0.0
03/08:30am 10.0 6.8 7.0 81 1.4 ESE 13 15 7 8 1035.7 1035.7 0.0
03/08:00am 8.4 5.4 6.2 86 1.0 ESE 11 13 6 7 1035.5 1035.5 0.0
03/07:30am 5.5 1.8 4.6 94 0.4 ESE 13 15 7 8 1035.2 1035.2 0.0
03/07:00am 5.4 1.6 4.0 91 0.6 SE 13 17 7 9 1034.8 1034.8 0.0
03/06:30am 3.8 -0.2 2.8 93 0.4 SE 13 15 7 8 1034.6 1034.6 0.0
03/06:00am 3.0 -0.3 2.2 94 0.3 SE 9 11 5 6 1034.2 1034.3 0.0
03/05:30am 2.7 -0.1 1.9 94 0.3 SSE 6 7 3 4 1034.1 1034.2 0.0
03/05:00am 3.2 0.8 2.4 94 0.3 SSE 4 9 2 5 1034.1 1034.2 0.0
03/04:30am 3.9 0.7 3.2 95 0.3 SSE 9 11 5 6 1034.0 1034.1 0.0
03/04:00am 4.0 1.2 3.3 95 0.3 SSE 7 11 4 6 1034.2 1034.3 0.0
03/03:30am 4.3 1.1 3.3 93 0.4 SSE 9 11 5 6 1034.4 1034.5 0.0
03/03:00am 2.9 -0.1 1.9 93 0.4 SSE 7 9 4 5 1034.6 1034.6 0.0
03/02:30am 3.0 0.2 2.0 93 0.4 SSE 6 9 3 5 1034.8 1034.8 0.0
03/02:00am 3.4 0.5 2.4 93 0.4 SSE 7 7 4 4 1034.9 1034.9 0.0
03/01:30am 3.7 1.0 2.4 91 0.5 SSE 6 7 3 4 1034.8 1034.8 0.0
03/01:00am 4.4 2.9 3.2 92 0.5 CALM 0 0 0 0 1034.7 1034.7 0.0
03/12:30am 4.0 2.4 2.7 91 0.5 CALM 0 0 0 0 1034.3 1034.4 0.0
03/12:00am 4.5 1.7 3.0 90 0.6 SSE 7 9 4 5 1034.3 1034.4 0.0
 
Date/Time
WST
Tmp

°C
App
Tmp
°C
Dew
Point
°C
Rel
Hum
%
Delta-T

°C
Wind Press
QNH
hPa
Press
MSL
hPa
Rain
since
9 am
mm
Dir
 
Spd
km/h
Gust
km/h
Spd
kts
Gust
kts
02/11:30pm 5.1 2.1 3.9 92 0.5 SSE 9 11 5 6 1034.6 1034.6 0.0
02/11:00pm 5.2 2.5 3.8 91 0.6 SE 7 9 4 5 1034.7 1034.7 0.0
02/10:30pm 5.7 2.7 4.3 91 0.6 ESE 9 11 5 6 1034.6 1034.6 0.0
02/10:00pm 5.6 2.6 3.9 89 0.7 SE 9 11 5 6 1034.8 1034.8 0.0
02/09:30pm 6.8 5.3 5.2 89 0.7 E 2 7 1 4 1034.9 1034.9 0.0
02/09:00pm 7.7 5.3 5.2 84 1.1 ESE 7 7 4 4 1034.7 1034.7 0.0
02/08:30pm 8.4 5.7 5.5 82 1.3 ESE 9 9 5 5 1034.6 1034.6 0.0
02/08:00pm 8.7 5.9 5.3 79 1.5 ESE 9 11 5 6 1034.4 1034.5 0.0
02/07:30pm 9.4 6.3 5.4 76 1.8 E 11 13 6 7 1034.2 1034.3 0.0
02/07:00pm 10.3 7.6 5.4 71 2.2 E 9 11 5 6 1034.1 1034.2 0.0
02/06:30pm 11.8 8.7 5.7 66 2.8 E 11 11 6 6 1033.8 1033.9 0.0
02/06:00pm 12.5 9.4 5.6 63 3.2 E 11 13 6 7 1033.4 1033.5 0.0
02/05:30pm 14.0 10.9 5.4 56 4.0 E 11 17 6 9 1033.0 1033.1 0.0
02/05:00pm 15.3 11.3 4.8 49 4.9 E 15 19 8 10 1032.7 1032.8 0.0
02/04:30pm 15.9 11.3 3.9 44 5.6 E 17 22 9 12 1032.4 1032.5 0.0
02/04:00pm 16.4 12.3 4.4 45 5.6 E 15 22 8 12 1032.2 1032.3 0.0
02/03:30pm 16.5 11.9 3.6 42 6.0 ESE 17 26 9 14 1031.9 1032.0 0.0
02/03:00pm 16.5 12.3 3.6 42 5.9 E 15 24 8 13 1031.9 1032.0 0.0
02/02:30pm 16.3 12.0 3.3 42 6.0 E 15 26 8 14 1031.9 1032.0 0.0
02/02:00pm 15.9 11.2 3.0 42 5.8 ESE 17 28 9 15 1032.1 1032.2 0.0
02/01:30pm 15.7 11.0 3.3 43 5.7 E 17 24 9 13 1032.3 1032.4 0.0
02/01:00pm 15.7 11.1 3.6 44 5.5 E 17 30 9 16 1032.7 1032.8 0.0
02/12:30pm 14.7 10.4 3.0 45 5.3 ESE 15 20 8 11 1033.3 1033.4 0.0
02/12:00pm 14.5 9.4 3.3 47 5.0 ENE 19 24 10 13 1033.8 1033.9 0.0
02/11:30am 14.0 9.6 2.9 47 5.0 ESE 15 20 8 11 1034.3 1034.4 0.0
02/11:00am 13.4 8.2 2.6 48 4.7 E 19 28 10 15 1034.7 1034.7 0.0
02/10:30am 13.0 7.9 3.0 50 4.4 E 19 26 10 14 1034.7 1034.7 0.0
02/10:00am 12.9 7.6 2.8 50 4.4 E 20 28 11 15 1034.9 1034.9 0.0
02/09:30am 11.6 7.0 3.9 59 3.4 SE 17 22 9 12 1034.8 1034.8 0.0
02/09:00am 10.9 7.7 4.9 66 2.7 SE 11 15 6 8 1034.7 1034.7 0.0
02/08:30am 9.3 6.8 6.5 83 1.3 SE 9 11 5 6 1034.3 1034.4 0.0
02/08:00am 8.1 5.4 5.6 84 1.1 SSE 9 11 5 6 1034.0 1034.1 0.0
02/07:30am 7.1 4.8 5.7 91 0.6 SE 7 9 4 5 1033.8 1033.9 0.0
02/07:00am 6.6 4.3 5.7 94 0.4 SE 7 9 4 5 1033.3 1033.4 0.0
02/06:30am 6.2 3.7 5.0 92 0.5 ESE 7 11 4 6 1033.0 1033.1 0.0
02/06:00am 5.4 2.5 4.7 95 0.3 SE 9 11 5 6 1032.4 1032.5 0.0
02/05:30am 4.3 2.6 3.8 97 0.2 S 2 9 1 5 1032.3 1032.4 0.0
02/05:00am 3.1 1.5 2.6 96 0.2 CALM 0 0 0 0 1032.2 1032.3 0.0
02/04:30am 2.6 -0.2 1.8 94 0.3 SSE 6 7 3 4 1031.7 1031.8 0.0
02/04:00am 3.2 0.3 2.7 96 0.2 SSE 7 7 4 4 1031.7 1031.8 0.0
02/03:30am 4.0 1.4 3.3 95 0.3 SSE 6 7 3 4 1031.9 1032.0 0.0
02/03:00am 4.6 2.4 3.6 93 0.4 SE 4 9 2 5 1031.6 1031.7 0.0
02/02:30am 5.1 3.5 4.6 97 0.2 ESE 2 6 1 3 1031.6 1031.7 0.0
02/02:00am 4.5 1.8 3.8 95 0.3 SE 7 9 4 5 1031.5 1031.6 0.0
02/01:30am 5.1 3.4 4.1 93 0.4 SE 2 7 1 4 1031.4 1031.5 0.0
02/01:00am 5.3 2.9 4.4 94 0.4 ESE 6 9 3 5 1031.4 1031.5 0.0
02/12:30am 4.9 2.4 3.9 93 0.4 ESE 6 9 3 5 1031.3 1031.4 0.0
02/12:00am 5.9 4.3 4.5 91 0.6 ESE 2 6 1 3 1031.2 1031.3 0.0
 
Date/Time
WST
Tmp

°C
App
Tmp
°C
Dew
Point
°C
Rel
Hum
%
Delta-T

°C
Wind Press
QNH
hPa
Press
MSL
hPa
Rain
since
9 am
mm
Dir
 
Spd
km/h
Gust
km/h
Spd
kts
Gust
kts
01/11:30pm 6.1 3.8 4.7 91 0.6 SE 6 7 3 4 1031.1 1031.2 0.0
01/11:00pm 7.0 4.6 5.4 89 0.7 SSE 7 9 4 5 1030.9 1031.0 0.0
01/10:30pm 7.5 5.2 5.5 87 0.9 SE 7 11 4 6 1030.7 1030.8 0.0
01/10:00pm 7.5 4.7 5.2 85 1.0 SE 9 9 5 5 1030.6 1030.7 0.0
01/09:30pm 6.9 4.7 5.1 88 0.8 SSE 6 7 3 4 1030.6 1030.7 0.0
01/09:00pm 7.4 4.8 4.4 81 1.3 SSE 7 9 4 5 1030.3 1030.4 0.0
01/08:30pm 9.1 6.2 4.8 74 1.9 SSE 9 9 5 5 1029.9 1029.9 0.0
01/08:00pm 10.0 6.7 4.3 67 2.5 SE 11 13 6 7 1029.5 1029.5 0.0
01/07:30pm 11.0 7.3 4.5 64 2.9 SSE 13 15 7 8 1029.1 1029.1 0.0
01/07:00pm 11.3 8.1 5.1 65 2.8 SE 11 11 6 6 1028.6 1028.6 0.0
01/06:30pm 12.8 9.0 4.1 55 3.9 SE 13 17 7 9 1028.1 1028.1 0.0
01/06:00pm 13.5 9.9 5.1 57 3.9 SE 13 17 7 9 1027.6 1027.6 0.0
01/05:30pm 14.2 9.2 3.5 48 4.8 ESE 19 26 10 14 1027.2 1027.2 0.0
01/05:00pm 14.7 9.2 4.2 49 4.8 SE 22 28 12 15 1026.9 1026.9 0.0
01/04:30pm 14.9 9.8 4.2 48 4.9 ESE 20 28 11 15 1026.4 1026.4 0.0
01/04:00pm 15.8 11.2 5.5 50 4.9 SE 19 26 10 14 1025.8 1025.8 0.0
01/03:30pm 16.2 11.6 5.5 49 5.1 ESE 19 26 10 14 1025.4 1025.4 0.0
01/03:00pm 16.8 12.1 5.3 46 5.5 ESE 19 26 10 14 1024.9 1024.9 0.0
01/02:30pm 16.2 11.0 5.5 49 5.1 SE 22 32 12 17 1024.8 1024.8 0.0
01/02:00pm 16.5 11.3 5.4 48 5.3 SE 22 32 12 17 1024.6 1024.6 0.0
01/01:30pm 16.2 10.6 5.5 49 5.1 SSE 24 33 13 18 1024.5 1024.5 0.0
01/01:00pm 16.7 11.9 5.4 47 5.4 ESE 20 32 11 17 1024.5 1024.5 0.0
01/12:30pm 16.7 11.1 5.4 47 5.4 SE 24 33 13 18 1024.7 1024.7 0.0
01/12:00pm 17.0 11.1 5.6 47 5.5 ESE 26 39 14 21 1024.8 1024.8 0.0
01/11:30am 16.3 9.6 5.4 48 5.2 SE 30 39 16 21 1024.8 1024.8 0.0
01/11:00am 15.9 10.4 5.9 51 4.8 SE 24 33 13 18 1024.6 1024.6 0.0
01/10:30am 15.3 8.7 5.9 53 4.5 SE 30 39 16 21 1024.6 1024.6 0.0
01/10:00am 14.6 8.4 6.3 57 4.0 SE 28 39 15 21 1024.5 1024.5 0.0
01/09:30am 14.0 8.6 6.2 59 3.7 SE 24 32 13 17 1024.3 1024.3 0.0
01/09:00am 13.4 7.3 6.5 63 3.3 SE 28 39 15 21 1023.8 1023.8 1.6
01/08:30am 12.8 7.2 7.2 69 2.7 SE 26 35 14 19 1023.2 1023.2 1.6
01/08:00am 12.3 7.1 7.3 71 2.4 SSE 24 35 13 19 1022.5 1022.5 1.6
01/07:30am 11.7 8.6 7.3 74 2.1 S 13 19 7 10 1021.8 1021.8 1.6
01/07:00am 11.0 8.0 7.5 79 1.7 SSE 13 15 7 8 1021.0 1021.0 1.6
01/06:30am 11.2 7.3 7.2 76 1.9 SSE 17 26 9 14 1020.3 1020.3 1.6
01/06:00am 11.3 8.2 7.1 75 2.0 S 13 22 7 12 1020.0 1020.0 1.6
01/05:30am 12.0 7.1 6.7 70 2.5 SE 22 32 12 17 1019.5 1019.5 1.6
01/05:00am 11.9 7.6 6.9 71 2.4 SE 19 32 10 17 1018.9 1018.9 1.6
01/04:30am 12.4 7.5 6.7 68 2.7 SE 22 32 12 17 1018.6 1018.6 1.6
01/04:00am 12.4 7.8 6.7 68 2.7 SSE 20 41 11 22 1018.2 1018.2 1.6
01/03:30am 12.4 6.3 6.7 68 2.7 SE 28 41 15 22 1017.7 1017.7 1.6
01/03:02am 12.5 6.2 7.3 70 2.5 SE 30 48 16 26 1017.7 1017.7 1.6
01/03:00am 12.6 5.9 7.2 69 2.6 SE 32 48 17 26 1017.5 1017.5 1.6
01/02:59am 12.5 6.1 7.1 69 2.6 SE 30 48 16 26 1017.6 1017.6 1.6
01/02:30am 12.7 6.8 7.3 69 2.6 SE 28 44 15 24 1017.2 1017.2 1.6
01/02:21am 12.6 6.3 7.5 71 2.5 SE 30 48 16 26 1017.2 1017.2 1.6
01/02:00am 12.8 6.5 7.5 70 2.6 SE 30 43 16 23 1017.1 1017.1 1.6
01/01:37am 12.8 6.9 7.7 71 2.5 SE 28 46 15 25 1017.1 1017.1 1.6
01/01:30am 12.8 6.6 7.7 71 2.5 SE 30 46 16 25 1017.0 1017.0 1.6
01/01:02am 12.8 6.6 7.7 71 2.5 SE 30 48 16 26 1016.7 1016.7 1.6
01/01:00am 12.8 6.2 7.9 72 2.4 SE 32 48 17 26 1016.7 1016.7 1.6
01/12:31am 13.2 7.6 8.6 73 2.3 SE 28 48 15 26 1016.1 1016.1 1.6
01/12:30am 13.2 7.9 8.6 73 2.3 SE 26 43 14 23 1016.1 1016.1 1.6
01/12:00am 13.3 7.1 9.2 76 2.1 SE 32 46 17 25 1015.7 1015.7 1.6
 
Date/Time
WST
Tmp

°C
App
Tmp
°C
Dew
Point
°C
Rel
Hum
%
Delta-T

°C
Wind Press
QNH
hPa
Press
MSL
hPa
Rain
since
9 am
mm
Dir
 
Spd
km/h
Gust
km/h
Spd
kts
Gust
kts
31/11:30pm 13.7 7.2 9.0 73 2.4 SE 33 50 18 27 1015.2 1015.2 1.6
31/11:25pm 13.7 7.4 9.0 73 2.4 SE 32 50 17 27 1015.0 1015.0 1.6
31/11:00pm 13.7 9.1 9.8 77 2.0 SE 24 33 13 18 1015.1 1015.1 1.6
31/10:30pm 14.0 9.5 9.9 76 2.1 SE 24 35 13 19 1014.8 1014.8 1.6
31/10:00pm 14.4 9.9 10.2 76 2.2 SE 24 35 13 19 1014.5 1014.5 1.6
31/09:30pm 14.5 10.7 11.1 80 1.8 SE 22 30 12 16 1014.3 1014.3 1.6
31/09:00pm 14.6 11.9 11.6 82 1.6 SE 17 28 9 15 1014.0 1014.0 1.6
31/08:30pm 14.6 12.9 12.6 88 1.1 SSE 13 15 7 8 1013.7 1013.7 1.6
31/08:00pm 14.8 13.5 12.4 85 1.3 SW 11 13 6 7 1013.2 1013.2 1.6
31/07:30pm 15.5 14.5 12.2 81 1.8 SW 9 13 5 7 1012.9 1012.9 1.6
31/07:00pm 15.2 14.2 12.3 83 1.6 SSW 9 11 5 6 1012.7 1012.7 1.6
31/06:30pm 15.4 14.9 12.7 84 1.5 SSE 7 9 4 5 1012.3 1012.3 1.6
31/06:00pm 15.4 14.9 12.5 83 1.6 ESE 7 9 4 5 1011.6 1011.6 1.6
31/05:30pm 16.9 15.1 12.0 73 2.7 SW 13 17 7 9 1011.3 1011.3 1.6
31/05:00pm 18.1 16.4 12.3 69 3.2 SW 13 19 7 10 1011.3 1011.3 1.6
31/04:30pm 19.5 16.2 11.7 60 4.3 SW 20 26 11 14 1011.1 1011.1 1.6
31/04:00pm 20.3 16.8 10.3 52 5.4 SW 19 22 10 12 1011.0 1011.0 1.6
31/03:30pm 20.9 18.4 10.9 52 5.5 WSW 15 19 8 10 1011.0 1011.0 1.6
31/03:00pm 21.0 19.7 12.5 58 4.8 WSW 11 15 6 8 1011.2 1011.2 1.6
31/02:30pm 21.1 20.0 12.0 56 5.1 W 9 15 5 8 1010.8 1010.8 1.6
31/02:00pm 21.0 18.5 11.2 53 5.4 WSW 15 20 8 11 1011.0 1011.0 1.6
31/01:30pm 20.9 19.4 13.0 60 4.5 SW 13 19 7 10 1011.2 1011.2 1.6
31/01:00pm 20.4 19.0 15.5 73 2.9 WSW 17 22 9 12 1012.2 1012.2 1.6

Latest Capital City Observations: Canberra | Sydney | Melbourne | Brisbane | Adelaide | Perth | Hobart | Darwin

Other Formats:

Comma delimited format used in spreadsheet applications
http://www.bom.gov.au/fwo/IDW60901/IDW60901.94609.axf

JavaScript Object Notation format (JSON) in row-major order
http://www.bom.gov.au/fwo/IDW60901/IDW60901.94609.json